Time;durP1;ratioP1;P1;durP2;ratioP2;P2;SDS_P1;SDS_P2;PMS_P1;PMS_P2;Temp;Humidity;BMP_temperature;BMP_pressure;BME280_temperature;BME280_humidity;BME280_pressure;Samples;Min_cycle;Max_cycle;Signal;HPM_P1;HPM_P2
2023/07/28 00:02:00;;;;;;;1.80;1.70;;;17.50;99.90;;;;;;5017630;28;20172;-58
2023/07/28 00:04:25;;;;;;;1.40;1.33;;;17.60;99.90;;;;;;5016253;28;20405;-59
2023/07/28 00:06:51;;;;;;;2.17;1.80;;;17.60;99.90;;;;;;5019097;28;20192;-58
2023/07/28 00:09:16;;;;;;;1.80;1.70;;;17.60;99.90;;;;;;5016915;28;20202;-58
2023/07/28 00:11:42;;;;;;;2.40;1.80;;;17.60;99.90;;;;;;5020921;28;20739;-58
2023/07/28 00:14:07;;;;;;;1.97;1.87;;;17.60;99.90;;;;;;5016565;28;20240;-58
2023/07/28 00:16:33;;;;;;;3.30;2.50;;;17.60;99.90;;;;;;5027277;28;20206;-58
2023/07/28 00:18:58;;;;;;;2.17;2.07;;;17.60;99.90;;;;;;5016897;28;20693;-58
2023/07/28 00:21:23;;;;;;;2.10;2.00;;;17.50;99.90;;;;;;5016411;28;20246;-58
2023/07/28 00:23:49;;;;;;;2.70;2.50;;;17.30;99.90;;;;;;5015415;28;20187;-58
2023/07/28 00:26:14;;;;;;;2.47;2.37;;;17.20;99.90;;;;;;5019916;28;20258;-58
2023/07/28 00:28:40;;;;;;;3.53;2.13;;;17.30;99.90;;;;;;5027810;28;20282;-58
2023/07/28 00:31:05;;;;;;;2.90;2.63;;;17.40;99.90;;;;;;5023993;28;20205;-58
2023/07/28 00:33:31;;;;;;;2.50;2.40;;;17.40;99.90;;;;;;5013746;28;20370;-57
2023/07/28 00:35:56;;;;;;;7.27;3.33;;;17.40;99.90;;;;;;5008050;28;20208;-57
2023/07/28 00:38:22;;;;;;;3.00;2.80;;;17.40;99.90;;;;;;5009349;28;20270;-58
2023/07/28 00:40:47;;;;;;;2.67;2.53;;;17.40;99.90;;;;;;5018981;28;20209;-58
2023/07/28 00:43:13;;;;;;;2.97;2.73;;;17.40;99.90;;;;;;5019323;28;20195;-59
2023/07/28 00:45:39;;;;;;;2.63;2.50;;;17.20;99.90;;;;;;5014694;28;21067;-58
2023/07/28 00:48:09;;;;;;;2.77;2.57;;;17.20;99.90;;;;;;5010586;28;20204;-58
2023/07/28 00:50:35;;;;;;;3.77;2.90;;;17.30;99.90;;;;;;5010877;28;20694;-58
2023/07/28 00:53:00;;;;;;;2.93;2.73;;;17.30;99.90;;;;;;5018452;28;20210;-58
2023/07/28 00:55:26;;;;;;;3.03;2.73;;;17.40;99.90;;;;;;5012888;28;20208;-58
2023/07/28 00:57:52;;;;;;;4.67;3.00;;;17.40;99.90;;;;;;5008962;28;20637;-58
2023/07/28 01:00:17;;;;;;;2.60;2.40;;;17.50;99.90;;;;;;5011034;28;20205;-58
2023/07/28 01:02:43;;;;;;;2.37;2.27;;;17.50;99.90;;;;;;5012946;28;20287;-60
2023/07/28 01:05:09;;;;;;;3.33;2.67;;;17.50;99.90;;;;;;5020137;28;20267;-58
2023/07/28 01:08:01;;;;;;;2.27;2.07;;;17.50;99.90;;;;;;5021217;28;20622;-58
2023/07/28 01:10:32;;;;;;;3.50;2.40;;;17.50;99.90;;;;;;5017399;28;20195;-59
2023/07/28 01:12:57;;;;;;;2.30;2.20;;;17.50;99.90;;;;;;5011458;28;20254;-59
2023/07/28 01:15:23;;;;;;;2.70;2.50;;;17.50;99.90;;;;;;5017647;28;20203;-58
2023/07/28 01:17:48;;;;;;;2.87;1.93;;;17.60;99.90;;;;;;5016961;28;20327;-58
2023/07/28 01:20:14;;;;;;;3.20;2.13;;;17.60;99.90;;;;;;5011724;28;20231;-58
2023/07/28 01:23:06;;;;;;;1.83;1.73;;;17.70;99.90;;;;;;5014354;28;20203;-58
2023/07/28 01:25:49;;;;;;;1.97;1.87;;;17.60;99.90;;;;;;5015108;28;20246;-59
2023/07/28 01:28:17;;;;;;;2.73;2.53;;;17.70;99.90;;;;;;5018249;28;20175;-58
2023/07/28 01:30:42;;;;;;;2.50;2.30;;;17.70;99.90;;;;;;5017729;28;20208;-59
2023/07/28 01:33:08;;;;;;;2.57;2.20;;;17.70;99.90;;;;;;5032362;28;20197;-58
2023/07/28 01:35:36;;;;;;;3.50;2.53;;;17.70;99.90;;;;;;5009380;28;20199;-58
2023/07/28 01:38:01;;;;;;;2.00;1.90;;;17.70;99.90;;;;;;5019477;28;20223;-60
2023/07/28 01:40:27;;;;;;;2.00;1.90;;;17.60;99.90;;;;;;5018017;28;20207;-57
2023/07/28 01:42:52;;;;;;;3.63;3.10;;;17.60;99.90;;;;;;5025994;28;20277;-57
2023/07/28 01:45:18;;;;;;;2.90;2.70;;;17.50;99.90;;;;;;5012799;28;20769;-62
2023/07/28 01:47:43;;;;;;;5.83;3.07;;;17.50;99.90;;;;;;5017499;28;20239;-60
2023/07/28 01:50:09;;;;;;;2.90;2.70;;;17.50;99.90;;;;;;5012714;28;20200;-60
2023/07/28 01:52:34;;;;;;;3.10;2.80;;;17.50;99.90;;;;;;5021015;28;20191;-61
2023/07/28 01:55:00;;;;;;;4.90;2.97;;;17.40;99.90;;;;;;5013107;28;20196;-57
2023/07/28 01:57:27;;;;;;;3.17;2.90;;;17.40;99.90;;;;;;5021544;28;20288;-58
2023/07/28 01:59:53;;;;;;;3.80;3.50;;;17.40;99.90;;;;;;5019523;28;20218;-58
2023/07/28 02:02:19;;;;;;;4.23;3.63;;;17.40;99.90;;;;;;5020281;28;20202;-58
2023/07/28 02:04:44;;;;;;;4.80;4.30;;;17.40;99.90;;;;;;5012850;28;20230;-57
2023/07/28 02:07:09;;;;;;;4.30;3.93;;;17.30;99.90;;;;;;5017173;28;20616;-59
2023/07/28 02:09:35;;;;;;;4.57;4.17;;;17.30;99.90;;;;;;5014271;28;20203;-59
2023/07/28 02:12:00;;;;;;;5.97;4.20;;;17.30;99.90;;;;;;5021178;28;20197;-59
2023/07/28 02:14:26;;;;;;;4.90;4.50;;;17.30;99.90;;;;;;5021901;28;20199;-58
2023/07/28 02:16:51;;;;;;;5.90;3.97;;;17.30;99.90;;;;;;5020968;28;20283;-58
2023/07/28 02:19:17;;;;;;;6.63;5.30;;;17.30;99.90;;;;;;5001119;28;20646;-58
2023/07/28 02:21:42;;;;;;;7.87;5.37;;;17.30;99.90;;;;;;5008326;28;20173;-58
2023/07/28 02:24:08;;;;;;;7.47;5.37;;;17.30;99.90;;;;;;5016934;28;20199;-58
2023/07/28 02:26:33;;;;;;;6.13;5.00;;;17.40;99.90;;;;;;5011409;28;20214;-59
2023/07/28 02:28:59;;;;;;;6.37;5.77;;;17.40;99.90;;;;;;5021392;28;20188;-59
2023/07/28 02:31:24;;;;;;;6.03;5.43;;;17.30;99.90;;;;;;5010354;28;20854;-59
2023/07/28 02:33:50;;;;;;;7.07;5.90;;;17.30;99.90;;;;;;5019328;28;20204;-59
2023/07/28 02:36:15;;;;;;;6.07;5.53;;;17.30;99.90;;;;;;5021765;28;20192;-58
2023/07/28 02:38:41;;;;;;;5.67;5.13;;;17.30;99.90;;;;;;5021702;28;20254;-60
2023/07/28 02:41:07;;;;;;;8.20;6.47;;;17.30;99.90;;;;;;5026587;28;20191;-58
2023/07/28 02:43:32;;;;;;;8.67;6.20;;;17.40;99.90;;;;;;5021151;28;20196;-58
2023/07/28 02:45:58;;;;;;;8.17;6.47;;;17.40;99.90;;;;;;5016778;28;20580;-58
2023/07/28 02:48:24;;;;;;;7.60;6.43;;;17.40;99.90;;;;;;5015787;28;20215;-58
2023/07/28 02:50:51;;;;;;;6.80;5.97;;;17.40;99.90;;;;;;5021421;28;20211;-59
2023/07/28 02:53:16;;;;;;;6.77;6.17;;;17.40;99.90;;;;;;5016606;28;20192;-58
2023/07/28 02:55:46;;;;;;;6.43;5.83;;;17.40;99.90;;;;;;5026081;28;20678;-58
2023/07/28 02:58:12;;;;;;;7.40;6.37;;;17.40;99.90;;;;;;5015707;28;20250;-58
2023/07/28 03:00:42;;;;;;;7.03;6.17;;;17.30;99.90;;;;;;5022252;28;20191;-58
2023/07/28 03:03:12;;;;;;;6.93;6.20;;;17.40;99.90;;;;;;5021432;28;20211;-58
2023/07/28 03:05:38;;;;;;;10.47;6.60;;;17.40;99.90;;;;;;5018613;28;20191;-58
2023/07/28 03:08:04;;;;;;;14.40;6.50;;;17.50;99.90;;;;;;5024025;28;20207;-58
2023/07/28 03:10:29;;;;;;;10.37;7.77;;;17.40;99.90;;;;;;5022541;28;20205;-58
2023/07/28 03:12:55;;;;;;;11.47;7.00;;;17.40;99.90;;;;;;5009579;28;20204;-58
2023/07/28 03:15:24;;;;;;;7.03;6.27;;;17.40;99.90;;;;;;5029058;28;20198;-57
2023/07/28 03:17:50;;;;;;;7.17;6.40;;;17.40;99.90;;;;;;5014164;28;20212;-57
2023/07/28 03:20:16;;;;;;;7.80;6.63;;;17.40;99.90;;;;;;5022461;28;20198;-57
2023/07/28 03:22:42;;;;;;;10.10;6.97;;;17.40;99.90;;;;;;5014221;28;20298;-57
2023/07/28 03:25:08;;;;;;;7.47;6.77;;;17.40;99.90;;;;;;5030610;28;20218;-58
2023/07/28 03:27:33;;;;;;;10.40;7.07;;;17.50;99.90;;;;;;5021379;28;20220;-59
2023/07/28 03:29:59;;;;;;;9.20;7.63;;;17.40;99.90;;;;;;5020893;28;20183;-58
2023/07/28 03:32:25;;;;;;;7.70;6.90;;;17.40;99.90;;;;;;5025125;28;20283;-58
2023/07/28 03:34:50;;;;;;;8.47;7.23;;;17.50;99.90;;;;;;5024209;28;20637;-58
2023/07/28 03:37:16;;;;;;;8.60;7.17;;;17.40;99.90;;;;;;5022854;28;20548;-58
2023/07/28 03:39:41;;;;;;;7.40;6.70;;;17.40;99.90;;;;;;5025107;28;20219;-58
2023/07/28 03:42:07;;;;;;;11.73;7.43;;;17.50;99.90;;;;;;5013448;28;20317;-58
2023/07/28 03:44:33;;;;;;;9.00;8.10;;;17.40;99.90;;;;;;5027035;28;20375;-58
2023/07/28 03:46:59;;;;;;;8.13;7.27;;;17.40;99.90;;;;;;5015976;28;20331;-57
2023/07/28 03:49:24;;;;;;;9.40;7.87;;;17.40;99.90;;;;;;5024741;28;20661;-58
2023/07/28 03:51:50;;;;;;;7.97;7.17;;;17.40;99.90;;;;;;5014940;28;20202;-57
2023/07/28 03:54:15;;;;;;;7.57;6.60;;;17.40;99.90;;;;;;5017769;28;20554;-57
2023/07/28 03:56:41;;;;;;;8.60;7.50;;;17.40;99.90;;;;;;5019674;28;20261;-57
2023/07/28 03:59:06;;;;;;;10.00;7.97;;;17.40;99.90;;;;;;5030575;28;20301;-58
2023/07/28 04:01:31;;;;;;;9.47;7.10;;;17.50;99.90;;;;;;5012670;28;20616;-58
2023/07/28 04:03:58;;;;;;;7.20;6.60;;;17.50;99.90;;;;;;5012275;28;20207;-58
2023/07/28 04:07:02;;;;;;;7.47;6.77;;;17.50;99.90;;;;;;5020212;28;20807;-58
2023/07/28 04:09:27;;;;;;;7.77;7.07;;;17.60;99.90;;;;;;4970556;28;20276;-60
2023/07/28 04:11:53;;;;;;;8.27;6.37;;;17.50;99.90;;;;;;4958983;28;20280;-60
2023/07/28 04:14:18;;;;;;;6.60;6.03;;;17.50;99.90;;;;;;4987031;28;20212;-60
2023/07/28 04:16:44;;;;;;;8.33;7.63;;;17.50;99.90;;;;;;5022699;28;20207;-60
2023/07/28 04:19:09;;;;;;;7.50;6.90;;;17.60;99.90;;;;;;5017105;28;20576;-60
2023/07/28 04:21:35;;;;;;;10.67;7.50;;;17.60;99.90;;;;;;5015474;28;20210;-60
2023/07/28 04:24:00;;;;;;;7.93;7.23;;;17.50;99.90;;;;;;5015473;28;21213;-58
2023/07/28 04:26:26;;;;;;;11.57;6.90;;;17.50;99.90;;;;;;5016509;28;20242;-58
2023/07/28 04:28:51;;;;;;;8.13;7.43;;;17.50;99.90;;;;;;5018426;28;20684;-64
2023/07/28 04:31:16;;;;;;;7.77;7.00;;;17.50;99.90;;;;;;5016760;28;20862;-62
2023/07/28 04:33:42;;;;;;;8.57;7.87;;;17.60;99.90;;;;;;5008476;28;20199;-61
2023/07/28 04:36:08;;;;;;;10.17;8.20;;;17.60;99.90;;;;;;5011600;28;20204;-58
2023/07/28 04:38:33;;;;;;;7.43;6.73;;;17.60;99.90;;;;;;5019681;28;20223;-60
2023/07/28 04:40:59;;;;;;;8.07;6.33;;;17.70;99.90;;;;;;5020996;28;20206;-58
2023/07/28 04:43:24;;;;;;;8.50;7.07;;;17.60;99.90;;;;;;5022874;28;20345;-58
2023/07/28 04:45:50;;;;;;;7.00;6.30;;;17.70;99.90;;;;;;5017110;28;20238;-60
2023/07/28 04:48:15;;;;;;;9.13;8.30;;;17.70;99.90;;;;;;5013149;28;20219;-57
2023/07/28 04:50:41;;;;;;;8.70;7.47;;;17.70;99.90;;;;;;5017955;28;20278;-57
2023/07/28 04:53:06;;;;;;;8.77;7.77;;;17.60;99.90;;;;;;5016460;28;20200;-59
2023/07/28 04:55:32;;;;;;;9.50;8.03;;;17.60;99.90;;;;;;5021756;28;20562;-56
2023/07/28 04:57:57;;;;;;;8.37;7.67;;;17.70;99.90;;;;;;5015185;28;20696;-58
2023/07/28 05:00:23;;;;;;;8.67;7.87;;;17.60;99.90;;;;;;5026142;28;20282;-57
2023/07/28 05:02:49;;;;;;;10.00;7.77;;;17.70;99.90;;;;;;5014139;28;20760;-57
2023/07/28 05:05:14;;;;;;;9.03;8.13;;;17.70;99.90;;;;;;5022873;28;20206;-57
2023/07/28 05:07:40;;;;;;;10.17;8.07;;;17.80;99.90;;;;;;5021622;28;20569;-57
2023/07/28 05:10:06;;;;;;;8.93;8.13;;;17.80;99.90;;;;;;5026127;28;20315;-57
2023/07/28 05:12:31;;;;;;;7.90;7.20;;;17.80;99.90;;;;;;5027705;28;20198;-58
2023/07/28 05:14:57;;;;;;;8.53;6.97;;;17.90;99.90;;;;;;5017194;28;20199;-58
2023/07/28 05:17:22;;;;;;;7.37;6.70;;;17.90;99.90;;;;;;5015484;28;20216;-58
2023/07/28 05:19:49;;;;;;;8.63;7.83;;;17.80;99.90;;;;;;5015924;28;20888;-58
2023/07/28 05:22:15;;;;;;;7.50;6.80;;;17.80;99.90;;;;;;5012883;28;20218;-57
2023/07/28 05:24:40;;;;;;;8.03;7.33;;;17.80;99.90;;;;;;5015134;28;20192;-57
2023/07/28 05:27:06;;;;;;;7.67;6.97;;;17.80;99.90;;;;;;5010289;28;20664;-57
2023/07/28 05:29:31;;;;;;;7.43;6.73;;;17.80;99.90;;;;;;5017386;28;20215;-59
2023/07/28 05:31:59;;;;;;;8.57;7.63;;;18.00;99.90;;;;;;5016488;28;20211;-57
2023/07/28 05:34:24;;;;;;;6.57;5.97;;;18.00;99.90;;;;;;5020076;28;20194;-57
2023/07/28 05:36:50;;;;;;;6.83;6.23;;;17.90;99.90;;;;;;5006525;28;20204;-57
2023/07/28 05:39:15;;;;;;;8.10;7.40;;;17.90;99.90;;;;;;5015184;28;20237;-57
2023/07/28 05:41:41;;;;;;;7.43;6.83;;;18.00;99.90;;;;;;5010568;28;20200;-57
2023/07/28 05:44:06;;;;;;;10.73;7.00;;;18.00;99.90;;;;;;5014626;28;20195;-57
2023/07/28 05:46:32;;;;;;;8.10;7.30;;;17.90;99.90;;;;;;5014074;28;20423;-57
2023/07/28 05:48:58;;;;;;;7.30;6.70;;;17.90;99.90;;;;;;5012174;28;20195;-57
2023/07/28 05:51:23;;;;;;;6.17;5.67;;;18.00;99.90;;;;;;5012731;28;20192;-57
2023/07/28 05:53:50;;;;;;;7.07;5.77;;;17.90;99.90;;;;;;5018218;28;20183;-57
2023/07/28 05:56:15;;;;;;;7.10;6.50;;;18.00;99.90;;;;;;5016711;28;20677;-57
2023/07/28 05:58:41;;;;;;;7.27;6.57;;;18.10;99.90;;;;;;4933166;22;20265;-58
2023/07/28 06:01:06;;;;;;;7.37;6.53;;;18.00;99.90;;;;;;5014510;28;20195;-58
2023/07/28 06:03:32;;;;;;;7.63;6.30;;;18.00;99.90;;;;;;5017592;28;20315;-58
2023/07/28 06:05:57;;;;;;;7.60;6.97;;;18.00;99.90;;;;;;5014141;28;20195;-59
2023/07/28 06:08:23;;;;;;;8.70;6.83;;;18.00;99.90;;;;;;5014766;28;20187;-59
2023/07/28 06:10:48;;;;;;;8.57;6.70;;;17.90;99.90;;;;;;5002736;28;20227;-59
2023/07/28 06:13:14;;;;;;;6.70;6.20;;;18.00;99.90;;;;;;5010054;28;20229;-59
2023/07/28 06:15:40;;;;;;;9.33;7.23;;;17.90;99.90;;;;;;5003032;28;20227;-59
2023/07/28 06:18:06;;;;;;;7.60;6.90;;;17.90;99.90;;;;;;5009303;28;20215;-59
2023/07/28 06:20:31;;;;;;;6.17;5.67;;;17.70;99.90;;;;;;5012378;28;20206;-59
2023/07/28 06:22:57;;;;;;;7.90;7.23;;;17.80;99.90;;;;;;5010321;28;20647;-58
2023/07/28 06:25:22;;;;;;;7.77;7.17;;;17.80;99.90;;;;;;5011844;28;20199;-58
2023/07/28 06:27:48;;;;;;;7.83;7.17;;;17.80;99.90;;;;;;5004400;28;20200;-57
2023/07/28 06:30:13;;;;;;;6.97;6.43;;;17.80;99.90;;;;;;5005729;28;20200;-58
2023/07/28 06:32:39;;;;;;;7.93;7.13;;;17.80;99.90;;;;;;5013103;28;20195;-58
2023/07/28 06:35:06;;;;;;;7.87;6.50;;;17.90;99.90;;;;;;5021129;28;20285;-57
2023/07/28 06:37:32;;;;;;;13.03;6.47;;;17.90;99.90;;;;;;5015010;28;20184;-58
2023/07/28 06:39:58;;;;;;;6.77;6.10;;;18.00;99.90;;;;;;5017361;28;20576;-57
2023/07/28 06:42:24;;;;;;;6.20;5.60;;;18.00;99.90;;;;;;5016399;28;20203;-59
2023/07/28 06:44:51;;;;;;;5.77;5.27;;;18.10;99.90;;;;;;5015611;28;20191;-58
2023/07/28 06:47:16;;;;;;;5.80;5.30;;;18.10;99.90;;;;;;5017756;28;20207;-62
2023/07/28 06:49:42;;;;;;;6.60;6.07;;;18.10;99.90;;;;;;5019217;28;20195;-62
2023/07/28 06:52:07;;;;;;;5.67;5.07;;;18.10;99.90;;;;;;5018806;28;20204;-62
2023/07/28 06:54:33;;;;;;;5.33;4.93;;;18.10;99.90;;;;;;5017564;28;20207;-62
2023/07/28 06:56:58;;;;;;;6.27;5.43;;;18.20;99.90;;;;;;5010338;28;20929;-62
2023/07/28 06:59:24;;;;;;;6.27;4.90;;;18.20;99.90;;;;;;5013741;28;20305;-61
2023/07/28 07:01:49;;;;;;;7.23;5.53;;;18.40;99.90;;;;;;5014323;28;20696;-61
2023/07/28 07:04:15;;;;;;;4.67;4.27;;;18.60;99.90;;;;;;5018028;28;20198;-61
2023/07/28 07:06:41;;;;;;;5.20;4.80;;;18.70;99.90;;;;;;5020036;28;20736;-61
2023/07/28 07:09:06;;;;;;;5.50;4.57;;;18.70;99.90;;;;;;5018619;28;20187;-61
2023/07/28 07:11:32;;;;;;;4.87;4.47;;;18.80;99.90;;;;;;5009668;28;20199;-61
2023/07/28 07:13:57;;;;;;;5.67;3.60;;;18.70;99.90;;;;;;5014270;28;20200;-62
2023/07/28 07:16:23;;;;;;;3.80;3.50;;;18.70;99.90;;;;;;5013338;28;20204;-61
2023/07/28 07:18:50;;;;;;;4.70;4.07;;;18.70;99.90;;;;;;5014065;28;20333;-62
2023/07/28 07:21:16;;;;;;;6.17;3.73;;;18.70;99.90;;;;;;5018861;28;20195;-61
2023/07/28 07:23:42;;;;;;;4.17;3.83;;;18.80;99.90;;;;;;5019328;28;20542;-61
2023/07/28 07:26:07;;;;;;;3.33;3.13;;;18.90;99.90;;;;;;5013145;28;20723;-59
2023/07/28 07:28:35;;;;;;;3.80;3.50;;;18.90;99.90;;;;;;5019592;28;20210;-60
2023/07/28 07:31:01;;;;;;;4.30;3.60;;;18.90;99.90;;;;;;5019454;28;20196;-60
2023/07/28 07:33:27;;;;;;;5.43;3.50;;;18.90;99.90;;;;;;5017442;28;20596;-61
2023/07/28 07:35:53;;;;;;;4.03;3.73;;;19.00;99.90;;;;;;5015130;28;20434;-58
2023/07/28 07:38:18;;;;;;;3.10;2.90;;;19.00;99.90;;;;;;5013894;28;20224;-56
2023/07/28 07:40:47;;;;;;;2.87;2.63;;;19.10;99.90;;;;;;5021582;28;20200;-56
2023/07/28 07:43:18;;;;;;;3.27;2.90;;;19.00;99.90;;;;;;5022850;28;20176;-56
2023/07/28 07:45:45;;;;;;;3.73;2.77;;;19.10;99.90;;;;;;5013597;28;20226;-58
2023/07/28 07:48:11;;;;;;;3.07;2.57;;;19.20;99.90;;;;;;5018198;28;20183;-58
2023/07/28 07:50:36;;;;;;;2.80;2.30;;;19.30;99.90;;;;;;5012077;28;20200;-59
2023/07/28 07:53:02;;;;;;;2.20;2.10;;;19.30;99.90;;;;;;5015873;28;20242;-60
2023/07/28 07:55:27;;;;;;;2.37;2.27;;;19.40;99.90;;;;;;5016500;28;20757;-62
2023/07/28 07:57:53;;;;;;;1.73;1.63;;;19.50;99.90;;;;;;5016426;28;20193;-62
2023/07/28 08:00:18;;;;;;;3.73;2.10;;;19.50;99.90;;;;;;5014169;28;20357;-61
2023/07/28 08:02:44;;;;;;;1.93;1.83;;;19.70;99.90;;;;;;5023399;28;20643;-61
2023/07/28 08:05:09;;;;;;;3.63;2.13;;;19.90;99.90;;;;;;5019473;28;20551;-61
2023/07/28 08:07:35;;;;;;;3.60;2.33;;;20.00;99.90;;;;;;5011535;28;20969;-61
2023/07/28 08:10:01;;;;;;;1.43;1.43;;;20.10;99.90;;;;;;5012796;28;20339;-61
2023/07/28 08:12:27;;;;;;;1.90;1.80;;;20.10;99.90;;;;;;5016136;28;20204;-62
2023/07/28 08:14:53;;;;;;;1.50;1.50;;;20.10;99.90;;;;;;5022051;28;20193;-66
2023/07/28 08:17:19;;;;;;;1.70;1.60;;;20.20;99.90;;;;;;5012588;28;20200;-61
2023/07/28 08:19:45;;;;;;;10.90;1.90;;;20.20;99.90;;;;;;5020319;28;20221;-66
2023/07/28 08:22:12;;;;;;;2.13;1.37;;;20.20;99.90;;;;;;5011064;28;20205;-60
2023/07/28 08:24:37;;;;;;;2.63;1.60;;;20.40;99.90;;;;;;5021023;28;20282;-64
2023/07/28 08:27:03;;;;;;;1.30;1.30;;;20.30;99.90;;;;;;5012600;28;20428;-63
2023/07/28 08:29:29;;;;;;;1.50;1.40;;;20.20;99.90;;;;;;5023846;28;20201;-61
2023/07/28 08:31:54;;;;;;;1.47;1.37;;;20.30;99.90;;;;;;5021209;28;20196;-62
2023/07/28 08:34:19;;;;;;;1.70;1.60;;;20.30;99.90;;;;;;5022133;28;20197;-62
2023/07/28 08:36:45;;;;;;;1.57;1.47;;;20.20;99.90;;;;;;5010460;28;20716;-61
2023/07/28 08:39:11;;;;;;;1.70;1.60;;;20.10;99.90;;;;;;5022834;28;20299;-62
2023/07/28 08:41:37;;;;;;;4.27;1.43;;;20.20;99.90;;;;;;5021266;28;20203;-62
2023/07/28 08:44:03;;;;;;;1.47;1.37;;;20.30;99.90;;;;;;5019058;28;20268;-65
2023/07/28 08:46:28;;;;;;;1.83;1.70;;;20.30;99.90;;;;;;5020002;28;20203;-66
2023/07/28 08:48:54;;;;;;;1.40;1.40;;;20.30;99.90;;;;;;5016563;28;20187;-62
2023/07/28 08:51:23;;;;;;;4.63;1.40;;;20.40;99.90;;;;;;5010775;28;20786;-62
2023/07/28 08:53:49;;;;;;;1.33;1.30;;;20.40;99.90;;;;;;5011127;28;20264;-62
2023/07/28 08:56:14;;;;;;;1.30;1.30;;;20.40;99.90;;;;;;5015082;28;20205;-67
2023/07/28 08:58:40;;;;;;;2.93;1.40;;;20.30;99.90;;;;;;5013424;28;20230;-63
2023/07/28 09:01:05;;;;;;;1.87;1.70;;;20.30;99.90;;;;;;5017717;28;20642;-64
2023/07/28 09:03:33;;;;;;;1.17;1.17;;;20.40;99.90;;;;;;5021425;28;20752;-63
2023/07/28 09:06:01;;;;;;;1.30;1.30;;;20.60;99.90;;;;;;5015162;28;20263;-59
2023/07/28 09:08:27;;;;;;;1.40;1.40;;;20.70;99.90;;;;;;5016515;28;20201;-63
2023/07/28 09:10:54;;;;;;;1.40;1.30;;;20.80;99.90;;;;;;5021527;28;20200;-68
2023/07/28 09:13:20;;;;;;;2.27;1.60;;;20.60;99.90;;;;;;5009681;28;20384;-61
2023/07/28 09:15:46;;;;;;;2.00;1.60;;;20.70;99.90;;;;;;5016363;28;20203;-71
2023/07/28 09:18:16;;;;;;;1.90;1.80;;;20.70;99.90;;;;;;5023108;28;20218;-71
2023/07/28 09:20:42;;;;;;;1.80;1.70;;;20.70;99.90;;;;;;5013477;28;20248;-62
2023/07/28 09:23:08;;;;;;;1.40;1.40;;;20.40;99.90;;;;;;5018090;28;20182;-61
2023/07/28 09:25:38;;;;;;;1.70;1.60;;;20.20;99.90;;;;;;5010076;28;20205;-66
2023/07/28 09:28:04;;;;;;;2.03;1.47;;;20.30;99.90;;;;;;5016249;28;20620;-63
2023/07/28 09:30:45;;;;;;;1.43;1.40;;;20.40;99.90;;;;;;5017593;28;20627;-63
2023/07/28 09:33:10;;;;;;;1.70;1.60;;;20.50;99.90;;;;;;5011259;28;20178;-63
2023/07/28 09:35:47;;;;;;;2.37;1.67;;;20.70;99.90;;;;;;5015722;28;20254;-66
2023/07/28 09:38:14;;;;;;;1.30;1.30;;;20.90;99.90;;;;;;5013445;28;20208;-63
2023/07/28 09:40:40;;;;;;;4.63;1.60;;;20.80;99.90;;;;;;5017641;28;20202;-64
2023/07/28 09:43:06;;;;;;;1.50;1.40;;;20.80;99.90;;;;;;5021921;28;20247;-62
2023/07/28 09:45:32;;;;;;;1.57;1.27;;;20.90;99.90;;;;;;5003248;28;20213;-64
2023/07/28 09:48:02;;;;;;;1.83;1.43;;;21.00;99.90;;;;;;5017242;28;20195;-61
2023/07/28 09:50:31;;;;;;;1.87;1.77;;;21.00;99.90;;;;;;5007742;28;20291;-63
2023/07/28 09:53:01;;;;;;;2.30;1.50;;;20.90;99.90;;;;;;5018469;28;20783;-59
2023/07/28 09:55:27;;;;;;;1.77;1.40;;;21.00;99.90;;;;;;5013826;28;20735;-59
2023/07/28 09:57:55;;;;;;;1.80;1.70;;;21.00;99.90;;;;;;5021145;28;20220;-63
2023/07/28 10:00:22;;;;;;;2.97;2.00;;;20.80;99.90;;;;;;5013071;28;20220;-62
2023/07/28 10:02:49;;;;;;;2.60;2.50;;;20.60;99.90;;;;;;5014284;28;20269;-62
2023/07/28 10:05:15;;;;;;;2.30;2.13;;;20.30;99.90;;;;;;5017846;28;20296;-66
2023/07/28 10:07:45;;;;;;;2.07;1.97;;;20.30;99.90;;;;;;5013331;28;20661;-64
2023/07/28 10:10:13;;;;;;;2.60;2.40;;;20.10;99.90;;;;;;5017027;28;20293;-59
2023/07/28 10:12:52;;;;;;;3.97;2.83;;;19.90;99.90;;;;;;5020706;28;20186;-65
2023/07/28 10:15:19;;;;;;;2.80;2.47;;;19.80;99.90;;;;;;5017493;28;20231;-60
2023/07/28 10:17:47;;;;;;;2.37;2.27;;;19.90;99.90;;;;;;5016531;28;20215;-59
2023/07/28 10:20:38;;;;;;;3.43;2.40;;;20.10;99.90;;;;;;5002634;28;20685;-69
2023/07/28 10:23:14;;;;;;;2.00;1.90;;;20.30;99.90;;;;;;5002185;28;20262;-60
2023/07/28 10:25:41;;;;;;;4.40;2.30;;;20.30;99.90;;;;;;5019125;28;20740;-65
2023/07/28 10:28:38;;;;;;;1.87;1.77;;;20.30;99.90;;;;;;5012762;28;20206;-64
2023/07/28 10:31:06;;;;;;;3.23;2.57;;;20.20;99.90;;;;;;5017322;28;20275;-64
2023/07/28 10:33:36;;;;;;;2.40;2.20;;;20.10;99.90;;;;;;5014228;28;20226;-63
2023/07/28 10:36:14;;;;;;;2.37;2.23;;;19.70;99.90;;;;;;5010051;28;20200;-60
2023/07/28 10:38:43;;;;;;;2.63;2.43;;;19.60;99.90;;;;;;5011930;28;20294;-62
2023/07/28 10:41:15;;;;;;;2.77;2.67;;;19.70;99.90;;;;;;5008357;28;20592;-61
2023/07/28 10:43:43;;;;;;;3.33;3.13;;;19.80;99.90;;;;;;5006747;28;20208;-60
2023/07/28 10:46:10;;;;;;;3.70;3.30;;;19.90;99.90;;;;;;5057041;22;20233;-65
2023/07/28 10:48:40;;;;;;;4.17;3.77;;;19.80;99.90;;;;;;4980412;28;20805;-61
2023/07/28 10:51:06;;;;;;;2.70;2.50;;;19.60;99.90;;;;;;4976942;28;20241;-62
2023/07/28 10:53:32;;;;;;;3.00;2.70;;;19.20;99.90;;;;;;4980553;28;20201;-64
2023/07/28 10:55:59;;;;;;;4.10;3.70;;;19.10;99.90;;;;;;4980888;28;20243;-66
2023/07/28 10:58:24;;;;;;;3.07;2.87;;;19.00;99.90;;;;;;4984487;28;20221;-58
2023/07/28 11:00:51;;;;;;;3.20;2.87;;;18.90;99.90;;;;;;4986805;28;20193;-58
2023/07/28 11:03:16;;;;;;;3.50;3.17;;;18.80;99.90;;;;;;4985098;28;20201;-59
2023/07/28 11:05:42;;;;;;;3.00;2.80;;;18.90;99.90;;;;;;4985529;28;20334;-56
2023/07/28 11:08:07;;;;;;;3.70;3.33;;;18.90;99.90;;;;;;4980380;28;20255;-61
2023/07/28 11:10:34;;;;;;;4.10;2.70;;;18.80;99.90;;;;;;4981607;28;20185;-60
2023/07/28 11:13:02;;;;;;;3.93;2.93;;;18.80;99.90;;;;;;4973203;28;20200;-61
2023/07/28 11:15:28;;;;;;;4.70;3.13;;;18.70;99.90;;;;;;4986726;28;20184;-61
2023/07/28 11:17:54;;;;;;;3.87;3.30;;;18.60;99.90;;;;;;4981688;28;20224;-60
2023/07/28 11:20:24;;;;;;;3.97;3.50;;;18.60;99.90;;;;;;4980318;28;20204;-61
2023/07/28 11:22:54;;;;;;;3.70;3.40;;;18.50;99.90;;;;;;4982260;28;20293;-65
2023/07/28 11:25:23;;;;;;;5.27;2.97;;;18.50;99.90;;;;;;4986876;28;20252;-62
2023/07/28 11:27:50;;;;;;;3.80;3.47;;;18.50;99.90;;;;;;4984586;28;20201;-59
2023/07/28 11:30:17;;;;;;;3.73;3.17;;;18.40;99.90;;;;;;4986915;28;20194;-57
2023/07/28 11:32:45;;;;;;;6.10;4.00;;;18.40;99.90;;;;;;4984512;28;20593;-62
2023/07/28 11:35:12;;;;;;;4.63;4.23;;;18.50;99.90;;;;;;4973080;28;20193;-74
2023/07/28 11:37:39;;;;;;;4.17;3.73;;;18.50;99.90;;;;;;4977052;28;20244;-76
2023/07/28 11:40:06;;;;;;;4.17;3.77;;;18.50;99.90;;;;;;4981264;28;20235;-76
2023/07/28 11:42:40;;;;;;;5.10;4.70;;;18.40;99.90;;;;;;4982398;28;20202;-76
2023/07/28 11:45:06;;;;;;;3.90;3.63;;;18.50;99.90;;;;;;4981151;28;20183;-73
2023/07/28 11:47:32;;;;;;;5.50;3.90;;;18.70;99.90;;;;;;4980977;28;21017;-75
2023/07/28 11:49:58;;;;;;;4.50;4.20;;;18.80;99.90;;;;;;4983352;28;20209;-62
2023/07/28 11:52:36;;;;;;;3.93;3.63;;;18.90;99.90;;;;;;4982373;28;20960;-64
2023/07/28 11:55:05;;;;;;;4.67;4.23;;;18.90;99.90;;;;;;4984103;28;20193;-62
2023/07/28 11:57:32;;;;;;;6.30;3.33;;;18.90;99.90;;;;;;4981178;28;20201;-76
2023/07/28 12:00:00;;;;;;;3.43;3.13;;;18.90;99.90;;;;;;4981169;28;20228;-75
2023/07/28 12:02:33;;;;;;;5.13;4.20;;;19.00;99.90;;;;;;4979053;28;20566;-66
2023/07/28 12:04:59;;;;;;;4.30;3.93;;;19.00;99.90;;;;;;4979548;28;20551;-63
2023/07/28 12:07:30;;;;;;;4.80;4.33;;;19.00;99.90;;;;;;4977703;28;20216;-63
2023/07/28 12:09:59;;;;;;;5.27;4.07;;;19.10;99.90;;;;;;4981201;28;20833;-63
2023/07/28 12:12:26;;;;;;;4.80;4.40;;;19.20;99.90;;;;;;4981402;28;20206;-63
2023/07/28 12:14:52;;;;;;;3.67;3.40;;;19.40;99.90;;;;;;4981288;28;20283;-62
2023/07/28 12:17:19;;;;;;;3.00;2.60;;;19.10;99.90;;;;;;4982015;28;20263;-68
2023/07/28 12:20:10;;;;;;;3.53;3.23;;;19.00;99.90;;;;;;4983348;28;20220;-70
2023/07/28 12:22:43;;;;;;;3.20;2.90;;;19.00;99.90;;;;;;4978277;28;20216;-67
2023/07/28 12:25:10;;;;;;;3.80;3.50;;;19.00;99.90;;;;;;4981472;28;20681;-67
2023/07/28 12:27:35;;;;;;;4.37;2.70;;;19.10;99.90;;;;;;4981866;28;20208;-66
2023/07/28 12:30:01;;;;;;;4.03;3.63;;;19.20;99.90;;;;;;4983899;28;21623;-66
2023/07/28 12:32:27;;;;;;;3.43;3.13;;;18.90;99.90;;;;;;4980412;28;20205;-66
2023/07/28 12:34:53;;;;;;;2.87;2.67;;;19.00;99.90;;;;;;4983233;28;20187;-66
2023/07/28 12:37:19;;;;;;;3.33;2.70;;;19.00;99.90;;;;;;4981443;28;20237;-66
2023/07/28 12:39:45;;;;;;;3.20;2.90;;;18.90;99.90;;;;;;4983185;28;20213;-65
2023/07/28 12:42:11;;;;;;;3.53;3.23;;;18.90;99.90;;;;;;4971659;28;20220;-64
2023/07/28 12:44:37;;;;;;;4.37;4.07;;;18.90;99.90;;;;;;4980032;28;20193;-66